UKV5400 ENBR-EGLC
Flight info
| Callsign | UKV5400 |
|---|---|
| Flight time | 1h 49m |
| Altitude | 39000 |
| Route | TUXIL DCT ZOL DCT SUTEB/N0458F400 DCT GALSO Q63 SUMUM |
| Aircraft | E190/M-SDE3GILORVW/S |
Departure
| Time | 2026-05-06 16:43 |
|---|---|
| Airport | Bergen Airport, Flesland (ENBR) |
Arrival
| Time | 2026-05-06 18:32 |
|---|---|
| Airport | London City Airport (EGLC) |
| Time | Latitude | Longitude | Altitude | Speed | Heading |
|---|---|---|---|---|---|
| 2026-05-06 15:40 | 60.28780 | 5.22894 | 172 ft | 0 kts | 80° |
| 2026-05-06 16:28 | 60.28779 | 5.22890 | 172 ft | 2 kts | 80° |
| 2026-05-06 16:28 | 60.28775 | 5.22838 | 172 ft | 4 kts | 80° |
| 2026-05-06 16:28 | 60.28773 | 5.22808 | 172 ft | 0 kts | 80° |
| 2026-05-06 16:35 | 60.28772 | 5.22812 | 172 ft | 1 kts | 86° |
| 2026-05-06 16:35 | 60.28770 | 5.22818 | 172 ft | 0 kts | 111° |
| 2026-05-06 16:35 | 60.28764 | 5.22820 | 172 ft | 1 kts | 157° |
| 2026-05-06 16:35 | 60.28750 | 5.22799 | 172 ft | 6 kts | 219° |
| 2026-05-06 16:36 | 60.28723 | 5.22674 | 169 ft | 13 kts | 257° |
| 2026-05-06 16:36 | 60.28720 | 5.22499 | 165 ft | 12 kts | 302° |
| 2026-05-06 16:36 | 60.28804 | 5.22441 | 165 ft | 14 kts | 350° |
| 2026-05-06 16:36 | 60.28876 | 5.22416 | 166 ft | 0 kts | 351° |
| 2026-05-06 16:37 | 60.28880 | 5.22415 | 166 ft | 2 kts | 351° |
| 2026-05-06 16:37 | 60.28891 | 5.22411 | 166 ft | 0 kts | 351° |
| 2026-05-06 16:38 | 60.28896 | 5.22410 | 166 ft | 2 kts | 351° |
| 2026-05-06 16:38 | 60.28918 | 5.22396 | 165 ft | 5 kts | 332° |
| 2026-05-06 16:38 | 60.28941 | 5.22298 | 161 ft | 11 kts | 306° |
| 2026-05-06 16:39 | 60.29019 | 5.22246 | 161 ft | 13 kts | 351° |
| 2026-05-06 16:39 | 60.29112 | 5.22215 | 162 ft | 14 kts | 351° |
| 2026-05-06 16:39 | 60.29216 | 5.22180 | 162 ft | 16 kts | 351° |
| 2026-05-06 16:39 | 60.29333 | 5.22140 | 159 ft | 19 kts | 350° |
| 2026-05-06 16:40 | 60.29478 | 5.22090 | 154 ft | 23 kts | 351° |
| 2026-05-06 16:40 | 60.29644 | 5.22034 | 147 ft | 24 kts | 350° |
| 2026-05-06 16:40 | 60.29815 | 5.21980 | 148 ft | 25 kts | 351° |
| 2026-05-06 16:40 | 60.29973 | 5.21927 | 155 ft | 22 kts | 351° |
| 2026-05-06 16:41 | 60.30118 | 5.21876 | 162 ft | 19 kts | 350° |
| 2026-05-06 16:41 | 60.30252 | 5.21833 | 164 ft | 20 kts | 351° |
| 2026-05-06 16:41 | 60.30376 | 5.21790 | 170 ft | 17 kts | 350° |
| 2026-05-06 16:41 | 60.30449 | 5.21717 | 172 ft | 11 kts | 279° |
| 2026-05-06 16:42 | 60.30425 | 5.21553 | 170 ft | 13 kts | 249° |
| 2026-05-06 16:42 | 60.30349 | 5.21478 | 166 ft | 16 kts | 170° |
| 2026-05-06 16:42 | 60.30220 | 5.21521 | 162 ft | 27 kts | 170° |
| 2026-05-06 16:42 | 60.29773 | 5.21675 | 153 ft | 102 kts | 171° |
| 2026-05-06 16:43 | 60.28866 | 5.21950 | 265 ft | 152 kts | 173° |
| 2026-05-06 16:43 | 60.27759 | 5.22319 | 942 ft | 172 kts | 172° |
| 2026-05-06 16:43 | 60.26613 | 5.22734 | 1315 ft | 172 kts | 172° |
| 2026-05-06 16:43 | 60.25375 | 5.23200 | 1769 ft | 185 kts | 172° |
| 2026-05-06 16:44 | 60.24085 | 5.23667 | 2323 ft | 192 kts | 173° |
| 2026-05-06 16:44 | 60.22740 | 5.24130 | 2823 ft | 201 kts | 173° |
| 2026-05-06 16:44 | 60.21334 | 5.24592 | 3322 ft | 210 kts | 173° |
| 2026-05-06 16:44 | 60.19860 | 5.25080 | 3809 ft | 219 kts | 173° |
| 2026-05-06 16:45 | 60.18337 | 5.25579 | 4303 ft | 226 kts | 172° |
| 2026-05-06 16:45 | 60.16789 | 5.26092 | 4805 ft | 230 kts | 172° |
| 2026-05-06 16:45 | 60.15190 | 5.26623 | 5310 ft | 237 kts | 172° |
| 2026-05-06 16:45 | 60.13516 | 5.27176 | 5647 ft | 256 kts | 172° |
| 2026-05-06 16:46 | 60.11701 | 5.27773 | 5978 ft | 271 kts | 172° |
| 2026-05-06 16:46 | 60.09826 | 5.28390 | 6616 ft | 274 kts | 173° |
| 2026-05-06 16:46 | 60.07948 | 5.28987 | 7252 ft | 274 kts | 173° |
| 2026-05-06 16:46 | 60.06051 | 5.29484 | 7795 ft | 278 kts | 175° |
| 2026-05-06 16:47 | 60.04120 | 5.29974 | 8318 ft | 282 kts | 175° |
| 2026-05-06 16:47 | 60.02161 | 5.30482 | 8873 ft | 285 kts | 175° |
| 2026-05-06 16:47 | 60.00201 | 5.30996 | 9562 ft | 285 kts | 175° |
| 2026-05-06 16:47 | 59.98229 | 5.31522 | 10173 ft | 288 kts | 175° |
| 2026-05-06 16:48 | 59.96178 | 5.32068 | 10391 ft | 305 kts | 176° |
| 2026-05-06 16:48 | 59.94027 | 5.32617 | 10753 ft | 315 kts | 176° |
| 2026-05-06 16:48 | 59.91834 | 5.33172 | 11247 ft | 322 kts | 176° |
| 2026-05-06 16:48 | 59.89598 | 5.33753 | 11723 ft | 328 kts | 177° |
| 2026-05-06 16:49 | 59.87332 | 5.34347 | 12359 ft | 330 kts | 177° |
| 2026-05-06 16:49 | 59.85042 | 5.34954 | 13009 ft | 333 kts | 178° |
| 2026-05-06 16:49 | 59.82707 | 5.35574 | 13628 ft | 338 kts | 178° |
| 2026-05-06 16:49 | 59.80351 | 5.36200 | 14244 ft | 342 kts | 179° |
| 2026-05-06 16:50 | 59.77966 | 5.36753 | 14916 ft | 343 kts | 181° |
| 2026-05-06 16:50 | 59.75565 | 5.37110 | 15574 ft | 345 kts | 182° |
| 2026-05-06 16:50 | 59.73150 | 5.37462 | 16226 ft | 347 kts | 182° |
| 2026-05-06 16:50 | 59.70720 | 5.37843 | 16861 ft | 351 kts | 182° |
| 2026-05-06 16:51 | 59.68273 | 5.38234 | 17486 ft | 355 kts | 183° |
| 2026-05-06 16:51 | 59.65807 | 5.38636 | 18139 ft | 358 kts | 183° |
| 2026-05-06 16:51 | 59.63327 | 5.39055 | 18678 ft | 362 kts | 182° |
| 2026-05-06 16:51 | 59.60836 | 5.39701 | 19306 ft | 364 kts | 180° |
| 2026-05-06 16:52 | 59.58335 | 5.40336 | 19938 ft | 359 kts | 184° |
| 2026-05-06 16:52 | 59.55817 | 5.40502 | 20227 ft | 365 kts | 188° |
| 2026-05-06 16:52 | 59.53258 | 5.40479 | 20630 ft | 370 kts | 188° |
| 2026-05-06 16:52 | 59.50663 | 5.40460 | 21067 ft | 376 kts | 188° |
| 2026-05-06 16:53 | 59.48034 | 5.40457 | 21449 ft | 380 kts | 187° |
| 2026-05-06 16:53 | 59.45378 | 5.40468 | 21995 ft | 383 kts | 187° |
| 2026-05-06 16:53 | 59.42704 | 5.40490 | 22538 ft | 386 kts | 187° |
| 2026-05-06 16:53 | 59.40015 | 5.40512 | 23086 ft | 388 kts | 187° |
| 2026-05-06 16:54 | 59.37301 | 5.40523 | 23628 ft | 391 kts | 187° |
| 2026-05-06 16:54 | 59.34578 | 5.40540 | 24148 ft | 392 kts | 187° |
| 2026-05-06 16:54 | 59.31886 | 5.40561 | 24694 ft | 392 kts | 187° |
| 2026-05-06 16:54 | 59.29161 | 5.40582 | 25246 ft | 392 kts | 187° |
| 2026-05-06 16:55 | 59.26425 | 5.40601 | 25760 ft | 393 kts | 187° |
| 2026-05-06 16:55 | 59.23695 | 5.40618 | 26260 ft | 393 kts | 187° |
| 2026-05-06 16:55 | 59.20949 | 5.40632 | 26730 ft | 395 kts | 187° |
| 2026-05-06 16:55 | 59.18191 | 5.40642 | 27027 ft | 399 kts | 187° |
| 2026-05-06 16:56 | 59.15412 | 5.40654 | 27424 ft | 400 kts | 187° |
| 2026-05-06 16:56 | 59.12618 | 5.40673 | 27845 ft | 402 kts | 187° |
| 2026-05-06 16:56 | 59.09818 | 5.40693 | 28241 ft | 403 kts | 187° |
| 2026-05-06 16:56 | 59.07011 | 5.40706 | 28641 ft | 404 kts | 187° |
| 2026-05-06 16:57 | 59.04197 | 5.40720 | 29009 ft | 405 kts | 187° |
| 2026-05-06 16:57 | 59.01380 | 5.40737 | 29552 ft | 403 kts | 187° |
| 2026-05-06 16:57 | 58.98597 | 5.40759 | 30137 ft | 399 kts | 187° |
| 2026-05-06 16:57 | 58.95824 | 5.40775 | 30502 ft | 399 kts | 187° |
| 2026-05-06 16:58 | 58.93044 | 5.40784 | 30756 ft | 400 kts | 187° |
| 2026-05-06 16:58 | 58.90246 | 5.40792 | 30872 ft | 405 kts | 187° |
| 2026-05-06 16:58 | 58.87424 | 5.40802 | 31166 ft | 406 kts | 187° |
| 2026-05-06 16:58 | 58.84605 | 5.40819 | 31528 ft | 405 kts | 187° |
| 2026-05-06 16:59 | 58.81792 | 5.40834 | 31889 ft | 404 kts | 187° |
| 2026-05-06 16:59 | 58.78979 | 5.40850 | 32231 ft | 404 kts | 187° |
| 2026-05-06 16:59 | 58.76176 | 5.40863 | 32558 ft | 403 kts | 187° |
| 2026-05-06 16:59 | 58.73372 | 5.40875 | 32891 ft | 403 kts | 187° |
| 2026-05-06 17:00 | 58.70565 | 5.40889 | 33201 ft | 403 kts | 187° |
| 2026-05-06 17:00 | 58.67767 | 5.40900 | 33537 ft | 402 kts | 187° |
| 2026-05-06 17:00 | 58.64965 | 5.40914 | 33876 ft | 402 kts | 187° |
| 2026-05-06 17:00 | 58.62165 | 5.40926 | 34162 ft | 402 kts | 187° |
| 2026-05-06 17:01 | 58.59360 | 5.40937 | 34346 ft | 404 kts | 187° |
| 2026-05-06 17:01 | 58.56541 | 5.40947 | 34552 ft | 406 kts | 186° |
| 2026-05-06 17:01 | 58.53714 | 5.40959 | 34777 ft | 407 kts | 186° |
| 2026-05-06 17:01 | 58.50882 | 5.40970 | 34986 ft | 408 kts | 186° |
| 2026-05-06 17:02 | 58.48043 | 5.40981 | 35194 ft | 409 kts | 186° |
| 2026-05-06 17:02 | 58.45195 | 5.40992 | 35396 ft | 410 kts | 186° |
| 2026-05-06 17:02 | 58.42340 | 5.41002 | 35599 ft | 411 kts | 186° |
| 2026-05-06 17:02 | 58.39478 | 5.41015 | 35799 ft | 412 kts | 186° |
| 2026-05-06 17:03 | 58.36612 | 5.41025 | 35983 ft | 413 kts | 186° |
| 2026-05-06 17:03 | 58.33740 | 5.41035 | 36181 ft | 413 kts | 186° |
| 2026-05-06 17:03 | 58.30864 | 5.41047 | 36381 ft | 414 kts | 186° |
| 2026-05-06 17:03 | 58.27980 | 5.41058 | 36561 ft | 415 kts | 186° |
| 2026-05-06 17:04 | 58.25094 | 5.41066 | 36732 ft | 416 kts | 185° |
| 2026-05-06 17:04 | 58.22199 | 5.41069 | 36916 ft | 416 kts | 185° |
| 2026-05-06 17:04 | 58.19299 | 5.41075 | 37093 ft | 417 kts | 185° |
| 2026-05-06 17:04 | 58.16394 | 5.41080 | 37263 ft | 418 kts | 185° |
| 2026-05-06 17:05 | 58.13484 | 5.41086 | 37422 ft | 419 kts | 185° |
| 2026-05-06 17:05 | 58.10571 | 5.41091 | 37578 ft | 419 kts | 185° |
| 2026-05-06 17:05 | 58.07648 | 5.41098 | 37715 ft | 420 kts | 185° |
| 2026-05-06 17:05 | 58.04731 | 5.41106 | 37904 ft | 420 kts | 185° |
| 2026-05-06 17:06 | 58.01803 | 5.41111 | 38048 ft | 421 kts | 185° |
| 2026-05-06 17:06 | 57.98875 | 5.41117 | 38193 ft | 421 kts | 185° |
| 2026-05-06 17:06 | 57.95944 | 5.41123 | 38344 ft | 422 kts | 185° |
| 2026-05-06 17:06 | 57.93008 | 5.41129 | 38492 ft | 422 kts | 185° |
| 2026-05-06 17:07 | 57.90106 | 5.41135 | 38626 ft | 423 kts | 185° |
| 2026-05-06 17:07 | 57.87162 | 5.41141 | 38745 ft | 423 kts | 185° |
| 2026-05-06 17:07 | 57.84178 | 5.41149 | 38860 ft | 423 kts | 185° |
| 2026-05-06 17:07 | 57.81260 | 5.41161 | 39151 ft | 412 kts | 185° |
| 2026-05-06 17:08 | 57.78414 | 5.41169 | 39122 ft | 417 kts | 185° |
| 2026-05-06 17:08 | 57.72534 | 5.41178 | 39112 ft | 424 kts | 185° |
| 2026-05-06 17:09 | 57.66604 | 5.41192 | 39038 ft | 432 kts | 185° |
| 2026-05-06 17:09 | 57.60544 | 5.41210 | 39022 ft | 439 kts | 185° |
| 2026-05-06 17:10 | 57.54394 | 5.41227 | 39030 ft | 444 kts | 185° |
| 2026-05-06 17:10 | 57.48198 | 5.41244 | 39024 ft | 446 kts | 184° |
| 2026-05-06 17:11 | 57.41990 | 5.41264 | 39025 ft | 446 kts | 184° |
| 2026-05-06 17:11 | 57.35782 | 5.41282 | 39027 ft | 446 kts | 184° |
| 2026-05-06 17:12 | 57.29575 | 5.41299 | 39025 ft | 446 kts | 184° |
| 2026-05-06 17:12 | 57.23370 | 5.41316 | 39042 ft | 445 kts | 184° |
| 2026-05-06 17:13 | 57.17168 | 5.41333 | 39030 ft | 445 kts | 184° |
| 2026-05-06 17:13 | 57.10971 | 5.41350 | 39031 ft | 446 kts | 184° |
| 2026-05-06 17:14 | 57.04765 | 5.41366 | 39029 ft | 446 kts | 184° |
| 2026-05-06 17:14 | 56.98567 | 5.41382 | 39012 ft | 445 kts | 184° |
| 2026-05-06 17:15 | 56.92385 | 5.41398 | 39027 ft | 444 kts | 184° |
| 2026-05-06 17:15 | 56.86197 | 5.41414 | 39025 ft | 445 kts | 184° |
| 2026-05-06 17:16 | 56.80013 | 5.41430 | 39025 ft | 445 kts | 184° |
| 2026-05-06 17:16 | 56.73827 | 5.41446 | 39025 ft | 445 kts | 184° |
| 2026-05-06 17:17 | 56.67647 | 5.41463 | 39022 ft | 444 kts | 184° |
| 2026-05-06 17:17 | 56.61460 | 5.41479 | 39027 ft | 444 kts | 184° |
| 2026-05-06 17:18 | 56.55279 | 5.41495 | 39027 ft | 444 kts | 184° |
| 2026-05-06 17:18 | 56.49097 | 5.41512 | 39025 ft | 444 kts | 184° |
| 2026-05-06 17:19 | 56.42957 | 5.41527 | 39032 ft | 444 kts | 184° |
| 2026-05-06 17:19 | 56.36721 | 5.41543 | 39027 ft | 445 kts | 184° |
| 2026-05-06 17:20 | 56.30563 | 5.41559 | 39028 ft | 445 kts | 184° |
| 2026-05-06 17:20 | 56.24366 | 5.41574 | 39028 ft | 445 kts | 184° |
| 2026-05-06 17:21 | 56.18168 | 5.41589 | 39016 ft | 446 kts | 184° |
| 2026-05-06 17:21 | 56.11959 | 5.41606 | 39026 ft | 446 kts | 184° |
| 2026-05-06 17:22 | 56.05755 | 5.41619 | 39023 ft | 446 kts | 184° |
| 2026-05-06 17:22 | 55.99544 | 5.41636 | 39026 ft | 446 kts | 184° |
| 2026-05-06 17:23 | 55.93337 | 5.41652 | 39023 ft | 446 kts | 184° |
| 2026-05-06 17:23 | 55.87130 | 5.41668 | 39026 ft | 446 kts | 184° |
| 2026-05-06 17:24 | 55.80921 | 5.41684 | 39020 ft | 446 kts | 184° |
| 2026-05-06 17:24 | 55.75757 | 5.41696 | 39024 ft | 446 kts | 184° |
| 2026-05-06 17:25 | 55.69552 | 5.41711 | 39017 ft | 446 kts | 184° |
| 2026-05-06 17:25 | 55.63344 | 5.41725 | 39032 ft | 446 kts | 184° |
| 2026-05-06 17:26 | 55.57134 | 5.41741 | 39019 ft | 446 kts | 184° |
| 2026-05-06 17:26 | 55.50928 | 5.41757 | 39018 ft | 446 kts | 184° |
| 2026-05-06 17:27 | 55.44724 | 5.41773 | 39018 ft | 446 kts | 184° |
| 2026-05-06 17:27 | 55.38518 | 5.41788 | 39020 ft | 445 kts | 183° |
| 2026-05-06 17:28 | 55.32311 | 5.41803 | 39017 ft | 446 kts | 183° |
| 2026-05-06 17:28 | 55.26107 | 5.41818 | 39014 ft | 446 kts | 183° |
| 2026-05-06 17:29 | 55.19903 | 5.41832 | 39014 ft | 446 kts | 183° |
| 2026-05-06 17:29 | 55.13697 | 5.41847 | 38995 ft | 446 kts | 183° |
| 2026-05-06 17:30 | 55.07497 | 5.41812 | 39012 ft | 444 kts | 188° |
| 2026-05-06 17:30 | 55.04524 | 5.40677 | 39026 ft | 436 kts | 204° |
| 2026-05-06 17:30 | 55.01720 | 5.38670 | 39049 ft | 436 kts | 205° |
| 2026-05-06 17:31 | 54.96135 | 5.34528 | 39007 ft | 436 kts | 205° |
| 2026-05-06 17:31 | 54.90548 | 5.30396 | 39002 ft | 436 kts | 205° |
| 2026-05-06 17:32 | 54.84953 | 5.26276 | 38986 ft | 437 kts | 205° |
| 2026-05-06 17:32 | 54.79359 | 5.22175 | 39002 ft | 436 kts | 205° |
| 2026-05-06 17:33 | 54.73760 | 5.18081 | 39004 ft | 437 kts | 205° |
| 2026-05-06 17:33 | 54.68157 | 5.13997 | 39000 ft | 437 kts | 205° |
| 2026-05-06 17:34 | 54.62561 | 5.09930 | 39003 ft | 436 kts | 205° |
| 2026-05-06 17:34 | 54.56955 | 5.05868 | 38998 ft | 437 kts | 205° |
| 2026-05-06 17:35 | 54.51346 | 5.01816 | 38995 ft | 437 kts | 205° |
| 2026-05-06 17:35 | 54.45738 | 4.97777 | 38995 ft | 437 kts | 205° |
| 2026-05-06 17:36 | 54.37319 | 4.91737 | 39003 ft | 437 kts | 205° |
| 2026-05-06 17:36 | 54.31746 | 4.87752 | 38993 ft | 437 kts | 205° |
| 2026-05-06 17:37 | 54.26131 | 4.83748 | 38992 ft | 437 kts | 205° |
| 2026-05-06 17:37 | 54.20514 | 4.79756 | 38990 ft | 437 kts | 205° |
| 2026-05-06 17:38 | 54.14896 | 4.75775 | 38975 ft | 437 kts | 205° |
| 2026-05-06 17:38 | 54.09271 | 4.71800 | 38988 ft | 438 kts | 205° |
| 2026-05-06 17:39 | 54.03648 | 4.67840 | 38984 ft | 438 kts | 205° |
| 2026-05-06 17:39 | 53.98019 | 4.63883 | 38984 ft | 438 kts | 204° |
| 2026-05-06 17:40 | 53.92393 | 4.59943 | 38987 ft | 438 kts | 204° |
| 2026-05-06 17:40 | 53.86757 | 4.56009 | 38986 ft | 438 kts | 204° |
| 2026-05-06 17:41 | 53.81116 | 4.52082 | 38988 ft | 438 kts | 204° |
| 2026-05-06 17:41 | 53.75476 | 4.48163 | 38983 ft | 438 kts | 204° |
| 2026-05-06 17:42 | 53.69831 | 4.44253 | 38985 ft | 438 kts | 204° |
| 2026-05-06 17:42 | 53.64185 | 4.40360 | 38979 ft | 438 kts | 204° |
| 2026-05-06 17:43 | 53.58537 | 4.36470 | 38980 ft | 438 kts | 204° |
| 2026-05-06 17:43 | 53.52889 | 4.32590 | 38983 ft | 439 kts | 204° |
| 2026-05-06 17:44 | 53.47241 | 4.28728 | 38984 ft | 438 kts | 204° |
| 2026-05-06 17:44 | 53.41626 | 4.24897 | 38981 ft | 439 kts | 204° |
| 2026-05-06 17:45 | 53.35976 | 4.21051 | 38978 ft | 438 kts | 204° |
| 2026-05-06 17:45 | 53.30318 | 4.17216 | 38979 ft | 438 kts | 204° |
| 2026-05-06 17:46 | 53.24663 | 4.13389 | 38970 ft | 439 kts | 204° |
| 2026-05-06 17:46 | 53.19006 | 4.09563 | 38970 ft | 439 kts | 204° |
| 2026-05-06 17:47 | 53.13345 | 4.05765 | 38973 ft | 439 kts | 204° |
| 2026-05-06 17:47 | 53.07673 | 4.01959 | 38966 ft | 439 kts | 204° |
| 2026-05-06 17:48 | 53.02005 | 3.98160 | 38966 ft | 439 kts | 204° |
| 2026-05-06 17:48 | 52.96337 | 3.94375 | 38964 ft | 439 kts | 204° |
| 2026-05-06 17:49 | 52.90673 | 3.90618 | 38965 ft | 437 kts | 204° |
| 2026-05-06 17:49 | 52.85016 | 3.86869 | 38963 ft | 437 kts | 204° |
| 2026-05-06 17:50 | 52.79370 | 3.83133 | 38956 ft | 437 kts | 204° |
| 2026-05-06 17:50 | 52.73725 | 3.79406 | 38957 ft | 437 kts | 204° |
| 2026-05-06 17:51 | 52.68089 | 3.75682 | 38959 ft | 436 kts | 203° |
| 2026-05-06 17:51 | 52.62463 | 3.71971 | 38952 ft | 434 kts | 204° |
| 2026-05-06 17:52 | 52.56846 | 3.68301 | 38951 ft | 434 kts | 204° |
| 2026-05-06 17:52 | 52.51237 | 3.64638 | 38943 ft | 434 kts | 204° |
| 2026-05-06 17:53 | 52.45620 | 3.60988 | 38944 ft | 433 kts | 204° |
| 2026-05-06 17:53 | 52.40020 | 3.57337 | 38942 ft | 432 kts | 203° |
| 2026-05-06 17:54 | 52.34470 | 3.53733 | 38944 ft | 432 kts | 204° |
| 2026-05-06 17:54 | 52.28814 | 3.50070 | 38944 ft | 435 kts | 204° |
| 2026-05-06 17:55 | 52.23204 | 3.46464 | 38929 ft | 438 kts | 203° |
| 2026-05-06 17:55 | 52.20369 | 3.44648 | 38505 ft | 436 kts | 203° |
| 2026-05-06 17:55 | 52.17596 | 3.42871 | 38292 ft | 422 kts | 204° |
| 2026-05-06 17:56 | 52.14872 | 3.41109 | 37601 ft | 420 kts | 203° |
| 2026-05-06 17:56 | 52.12177 | 3.39359 | 37126 ft | 415 kts | 204° |
| 2026-05-06 17:56 | 52.09496 | 3.37620 | 36545 ft | 414 kts | 204° |
| 2026-05-06 17:56 | 52.06824 | 3.35887 | 35980 ft | 415 kts | 205° |
| 2026-05-06 17:57 | 52.04133 | 3.34163 | 35447 ft | 418 kts | 203° |
| 2026-05-06 17:57 | 52.01413 | 3.32454 | 34877 ft | 420 kts | 204° |
| 2026-05-06 17:57 | 51.98689 | 3.30750 | 34348 ft | 420 kts | 202° |
| 2026-05-06 17:57 | 51.95949 | 3.29032 | 33743 ft | 424 kts | 202° |
| 2026-05-06 17:58 | 51.93201 | 3.27314 | 33244 ft | 423 kts | 202° |
| 2026-05-06 17:58 | 51.90460 | 3.25601 | 32659 ft | 421 kts | 203° |
| 2026-05-06 17:58 | 51.87737 | 3.23901 | 32110 ft | 420 kts | 202° |
| 2026-05-06 17:58 | 51.85005 | 3.22211 | 31570 ft | 421 kts | 202° |
| 2026-05-06 17:59 | 51.82273 | 3.20531 | 31013 ft | 421 kts | 202° |
| 2026-05-06 17:59 | 51.79543 | 3.18874 | 30470 ft | 417 kts | 205° |
| 2026-05-06 17:59 | 51.77036 | 3.16580 | 30009 ft | 416 kts | 218° |
| 2026-05-06 17:59 | 51.75026 | 3.13210 | 29403 ft | 417 kts | 236° |
| 2026-05-06 18:00 | 51.74099 | 3.10495 | 29064 ft | 418 kts | 247° |
| 2026-05-06 18:00 | 51.73195 | 3.04404 | 28322 ft | 417 kts | 259° |
| 2026-05-06 18:00 | 51.72729 | 2.99777 | 27734 ft | 417 kts | 260° |
| 2026-05-06 18:00 | 51.72265 | 2.95275 | 27174 ft | 411 kts | 260° |
| 2026-05-06 18:01 | 51.71779 | 2.90773 | 26663 ft | 404 kts | 259° |
| 2026-05-06 18:01 | 51.71275 | 2.86323 | 26119 ft | 403 kts | 259° |
| 2026-05-06 18:01 | 51.70757 | 2.81893 | 25577 ft | 402 kts | 259° |
| 2026-05-06 18:01 | 51.70229 | 2.77490 | 25056 ft | 398 kts | 258° |
| 2026-05-06 18:02 | 51.69691 | 2.73129 | 24530 ft | 393 kts | 258° |
| 2026-05-06 18:02 | 51.69145 | 2.68825 | 24017 ft | 391 kts | 258° |
| 2026-05-06 18:02 | 51.68601 | 2.64540 | 23493 ft | 390 kts | 259° |
| 2026-05-06 18:02 | 51.68200 | 2.60244 | 22982 ft | 385 kts | 262° |
| 2026-05-06 18:03 | 51.67857 | 2.55982 | 22463 ft | 382 kts | 262° |
| 2026-05-06 18:03 | 51.67503 | 2.51776 | 21965 ft | 379 kts | 262° |
| 2026-05-06 18:03 | 51.67135 | 2.47579 | 21473 ft | 377 kts | 262° |
| 2026-05-06 18:03 | 51.66757 | 2.43400 | 20979 ft | 376 kts | 261° |
| 2026-05-06 18:04 | 51.66376 | 2.39255 | 20467 ft | 373 kts | 262° |
| 2026-05-06 18:04 | 51.65997 | 2.35137 | 19980 ft | 370 kts | 262° |
| 2026-05-06 18:04 | 51.65620 | 2.31049 | 19495 ft | 368 kts | 262° |
| 2026-05-06 18:04 | 51.65242 | 2.26985 | 19006 ft | 365 kts | 262° |
| 2026-05-06 18:05 | 51.64866 | 2.22952 | 18527 ft | 362 kts | 262° |
| 2026-05-06 18:05 | 51.64492 | 2.18956 | 18021 ft | 360 kts | 262° |
| 2026-05-06 18:05 | 51.64121 | 2.15008 | 17576 ft | 355 kts | 262° |
| 2026-05-06 18:05 | 51.63832 | 2.11063 | 17092 ft | 354 kts | 271° |
| 2026-05-06 18:06 | 51.64287 | 2.07199 | 16678 ft | 353 kts | 288° |
| 2026-05-06 18:06 | 51.65174 | 2.03508 | 16172 ft | 353 kts | 292° |
| 2026-05-06 18:06 | 51.66094 | 1.99858 | 15700 ft | 350 kts | 291° |
| 2026-05-06 18:06 | 51.66960 | 1.96223 | 15229 ft | 346 kts | 290° |
| 2026-05-06 18:07 | 51.67795 | 1.92580 | 14785 ft | 344 kts | 290° |
| 2026-05-06 18:07 | 51.68599 | 1.89012 | 14328 ft | 334 kts | 290° |
| 2026-05-06 18:07 | 51.69374 | 1.85541 | 13891 ft | 324 kts | 290° |
| 2026-05-06 18:07 | 51.70124 | 1.82168 | 13452 ft | 315 kts | 290° |
| 2026-05-06 18:08 | 51.70849 | 1.78895 | 13065 ft | 306 kts | 290° |
| 2026-05-06 18:08 | 51.71554 | 1.75711 | 12656 ft | 298 kts | 290° |
| 2026-05-06 18:08 | 51.72241 | 1.72600 | 12267 ft | 291 kts | 290° |
| 2026-05-06 18:08 | 51.72914 | 1.69548 | 11887 ft | 285 kts | 290° |
| 2026-05-06 18:09 | 51.73572 | 1.66560 | 11518 ft | 281 kts | 290° |
| 2026-05-06 18:09 | 51.74220 | 1.63610 | 11153 ft | 278 kts | 290° |
| 2026-05-06 18:09 | 51.74715 | 1.60603 | 10748 ft | 280 kts | 274° |
| 2026-05-06 18:09 | 51.74655 | 1.57462 | 10432 ft | 281 kts | 265° |
| 2026-05-06 18:10 | 51.74413 | 1.54333 | 10027 ft | 280 kts | 263° |
| 2026-05-06 18:10 | 51.74131 | 1.51241 | 9653 ft | 276 kts | 257° |
| 2026-05-06 18:10 | 51.73313 | 1.48482 | 9333 ft | 272 kts | 238° |
| 2026-05-06 18:10 | 51.72211 | 1.46059 | 9107 ft | 264 kts | 235° |
| 2026-05-06 18:11 | 51.71115 | 1.43736 | 8853 ft | 257 kts | 234° |
| 2026-05-06 18:11 | 51.70392 | 1.42191 | 8663 ft | 254 kts | 235° |
| 2026-05-06 18:11 | 51.69359 | 1.39960 | 8398 ft | 249 kts | 235° |
| 2026-05-06 18:11 | 51.68337 | 1.37739 | 8145 ft | 245 kts | 235° |
| 2026-05-06 18:12 | 51.67334 | 1.35553 | 7882 ft | 241 kts | 236° |
| 2026-05-06 18:12 | 51.66347 | 1.33403 | 7628 ft | 237 kts | 235° |
| 2026-05-06 18:12 | 51.65373 | 1.31280 | 7370 ft | 234 kts | 236° |
| 2026-05-06 18:12 | 51.64409 | 1.29181 | 7139 ft | 232 kts | 236° |
| 2026-05-06 18:13 | 51.63459 | 1.27106 | 6973 ft | 227 kts | 236° |
| 2026-05-06 18:13 | 51.62530 | 1.25078 | 6978 ft | 225 kts | 236° |
| 2026-05-06 18:13 | 51.61595 | 1.23024 | 6985 ft | 230 kts | 236° |
| 2026-05-06 18:13 | 51.60644 | 1.20938 | 6993 ft | 232 kts | 236° |
| 2026-05-06 18:14 | 51.59687 | 1.18845 | 7002 ft | 233 kts | 236° |
| 2026-05-06 18:14 | 51.58725 | 1.16746 | 6993 ft | 234 kts | 235° |
| 2026-05-06 18:14 | 51.57761 | 1.14643 | 6966 ft | 233 kts | 236° |
| 2026-05-06 18:14 | 51.56801 | 1.12549 | 6964 ft | 232 kts | 235° |
| 2026-05-06 18:15 | 51.55821 | 1.10409 | 7006 ft | 249 kts | 235° |
| 2026-05-06 18:15 | 51.54771 | 1.08117 | 7046 ft | 259 kts | 235° |
| 2026-05-06 18:15 | 51.53687 | 1.05761 | 7018 ft | 266 kts | 235° |
| 2026-05-06 18:15 | 51.52586 | 1.03372 | 6972 ft | 264 kts | 235° |
| 2026-05-06 18:16 | 51.51500 | 1.00984 | 6964 ft | 265 kts | 239° |
| 2026-05-06 18:16 | 51.50821 | 0.98279 | 6968 ft | 262 kts | 258° |
| 2026-05-06 18:16 | 51.50483 | 0.95407 | 6969 ft | 263 kts | 261° |
| 2026-05-06 18:16 | 51.50188 | 0.92491 | 6982 ft | 265 kts | 261° |
| 2026-05-06 18:17 | 51.49881 | 0.89575 | 6991 ft | 264 kts | 261° |
| 2026-05-06 18:17 | 51.49564 | 0.86667 | 6991 ft | 265 kts | 261° |
| 2026-05-06 18:17 | 51.49245 | 0.83764 | 6994 ft | 264 kts | 261° |
| 2026-05-06 18:17 | 51.48927 | 0.80901 | 6979 ft | 255 kts | 261° |
| 2026-05-06 18:18 | 51.48624 | 0.78164 | 6894 ft | 244 kts | 261° |
| 2026-05-06 18:18 | 51.48333 | 0.75540 | 6790 ft | 233 kts | 261° |
| 2026-05-06 18:18 | 51.48054 | 0.73047 | 6731 ft | 222 kts | 261° |
| 2026-05-06 18:18 | 51.47788 | 0.70654 | 6592 ft | 215 kts | 261° |
| 2026-05-06 18:19 | 51.47527 | 0.68311 | 6396 ft | 212 kts | 261° |
| 2026-05-06 18:19 | 51.47270 | 0.65995 | 6166 ft | 210 kts | 261° |
| 2026-05-06 18:19 | 51.47012 | 0.63701 | 5932 ft | 207 kts | 261° |
| 2026-05-06 18:19 | 51.46759 | 0.61445 | 6067 ft | 212 kts | 261° |
| 2026-05-06 18:20 | 51.46486 | 0.59041 | 6115 ft | 225 kts | 261° |
| 2026-05-06 18:20 | 51.46201 | 0.56538 | 6134 ft | 232 kts | 261° |
| 2026-05-06 18:20 | 51.45909 | 0.53978 | 6046 ft | 231 kts | 261° |
| 2026-05-06 18:20 | 51.45623 | 0.51457 | 6025 ft | 230 kts | 260° |
| 2026-05-06 18:21 | 51.45334 | 0.48941 | 5987 ft | 229 kts | 261° |
| 2026-05-06 18:21 | 51.45046 | 0.46441 | 5982 ft | 227 kts | 259° |
| 2026-05-06 18:21 | 51.44759 | 0.43957 | 5982 ft | 226 kts | 260° |
| 2026-05-06 18:21 | 51.44475 | 0.41474 | 5983 ft | 227 kts | 260° |
| 2026-05-06 18:22 | 51.44182 | 0.38925 | 5473 ft | 242 kts | 260° |
| 2026-05-06 18:22 | 51.43873 | 0.36241 | 5100 ft | 244 kts | 260° |
| 2026-05-06 18:22 | 51.43563 | 0.33592 | 4782 ft | 241 kts | 260° |
| 2026-05-06 18:22 | 51.43254 | 0.30960 | 4463 ft | 240 kts | 261° |
| 2026-05-06 18:23 | 51.42880 | 0.28372 | 4154 ft | 237 kts | 264° |
| 2026-05-06 18:23 | 51.42900 | 0.25758 | 3872 ft | 232 kts | 279° |
| 2026-05-06 18:23 | 51.43113 | 0.23249 | 3557 ft | 223 kts | 280° |
| 2026-05-06 18:23 | 51.43288 | 0.20822 | 3241 ft | 215 kts | 277° |
| 2026-05-06 18:24 | 51.43406 | 0.18487 | 3001 ft | 206 kts | 277° |
| 2026-05-06 18:24 | 51.43499 | 0.16278 | 2923 ft | 191 kts | 276° |
| 2026-05-06 18:24 | 51.43568 | 0.14203 | 2891 ft | 183 kts | 276° |
| 2026-05-06 18:24 | 51.43633 | 0.12177 | 2979 ft | 180 kts | 276° |
| 2026-05-06 18:25 | 51.43702 | 0.10144 | 3058 ft | 188 kts | 276° |
| 2026-05-06 18:25 | 51.43767 | 0.08063 | 3056 ft | 184 kts | 277° |
| 2026-05-06 18:25 | 51.43830 | 0.06063 | 3037 ft | 174 kts | 276° |
| 2026-05-06 18:25 | 51.43889 | 0.04201 | 2981 ft | 160 kts | 277° |
| 2026-05-06 18:26 | 51.43934 | 0.02528 | 2937 ft | 141 kts | 278° |
| 2026-05-06 18:26 | 51.43980 | 0.01042 | 2792 ft | 124 kts | 278° |
| 2026-05-06 18:26 | 51.44026 | -0.00273 | 2466 ft | 124 kts | 279° |
| 2026-05-06 18:26 | 51.44079 | -0.01640 | 2027 ft | 126 kts | 279° |
| 2026-05-06 18:27 | 51.44127 | -0.03103 | 1648 ft | 134 kts | 278° |
| 2026-05-06 18:27 | 51.44174 | -0.04591 | 1580 ft | 134 kts | 279° |
| 2026-05-06 18:27 | 51.44254 | -0.06105 | 1644 ft | 139 kts | 277° |
| 2026-05-06 18:27 | 51.44305 | -0.07692 | 1765 ft | 144 kts | 275° |
| 2026-05-06 18:28 | 51.44403 | -0.09273 | 1865 ft | 141 kts | 289° |
| 2026-05-06 18:28 | 51.44912 | -0.10528 | 1930 ft | 133 kts | 330° |
| 2026-05-06 18:28 | 51.45783 | -0.10974 | 2045 ft | 135 kts | 349° |
| 2026-05-06 18:28 | 51.46728 | -0.11273 | 2076 ft | 138 kts | 349° |
| 2026-05-06 18:29 | 51.47658 | -0.11602 | 2035 ft | 134 kts | 349° |
| 2026-05-06 18:29 | 51.48584 | -0.11834 | 1961 ft | 133 kts | 4° |
| 2026-05-06 18:29 | 51.49421 | -0.11290 | 1962 ft | 131 kts | 40° |
| 2026-05-06 18:29 | 51.50054 | -0.10219 | 2020 ft | 131 kts | 45° |
| 2026-05-06 18:30 | 51.50505 | -0.08892 | 2039 ft | 140 kts | 68° |
| 2026-05-06 18:30 | 51.50851 | -0.07461 | 2033 ft | 136 kts | 66° |
| 2026-05-06 18:30 | 51.50885 | -0.05957 | 2108 ft | 132 kts | 92° |
| 2026-05-06 18:30 | 51.50805 | -0.04525 | 2130 ft | 128 kts | 86° |
| 2026-05-06 18:31 | 51.50797 | -0.03043 | 1810 ft | 138 kts | 86° |
| 2026-05-06 18:31 | 51.50732 | -0.01543 | 1442 ft | 130 kts | 88° |
| 2026-05-06 18:31 | 51.50667 | -0.00132 | 1142 ft | 129 kts | 89° |
| 2026-05-06 18:31 | 51.50637 | 0.01295 | 764 ft | 126 kts | 86° |
| 2026-05-06 18:32 | 51.50607 | 0.02679 | 433 ft | 122 kts | 88° |
| 2026-05-06 18:32 | 51.50567 | 0.04014 | 158 ft | 119 kts | 88° |
| 2026-05-06 18:32 | 51.50531 | 0.05286 | 24 ft | 99 kts | 93° |
| 2026-05-06 18:32 | 51.50504 | 0.06099 | 26 ft | 41 kts | 94° |
| 2026-05-06 18:33 | 51.50462 | 0.06333 | 24 ft | 10 kts | 153° |
| 2026-05-06 18:33 | 51.50417 | 0.06287 | 24 ft | 10 kts | 260° |
| 2026-05-06 18:33 | 51.50418 | 0.06163 | 28 ft | 12 kts | 272° |
| 2026-05-06 18:33 | 51.50425 | 0.06010 | 24 ft | 15 kts | 273° |
| 2026-05-06 18:34 | 51.50429 | 0.05830 | 24 ft | 17 kts | 272° |
| 2026-05-06 18:34 | 51.50436 | 0.05624 | 24 ft | 20 kts | 273° |
| 2026-05-06 18:34 | 51.50443 | 0.05408 | 24 ft | 16 kts | 272° |
| 2026-05-06 18:34 | 51.50447 | 0.05230 | 24 ft | 17 kts | 272° |
| 2026-05-06 18:35 | 51.50456 | 0.05054 | 24 ft | 13 kts | 278° |
| 2026-05-06 18:35 | 51.50463 | 0.04939 | 24 ft | 5 kts | 272° |
| 2026-05-06 18:35 | 51.50463 | 0.04914 | 24 ft | 0 kts | 268° |
| 2026-05-06 18:35 | 51.50462 | 0.04912 | 24 ft | 0 kts | 253° |
| 2026-05-06 18:36 | 51.50458 | 0.04909 | 28 ft | 1 kts | 218° |
| 2026-05-06 18:36 | 51.50446 | 0.04904 | 24 ft | 3 kts | 197° |
| 2026-05-06 18:36 | 51.50431 | 0.04890 | 26 ft | 3 kts | 227° |
| 2026-05-06 18:36 | 51.50431 | 0.04881 | 24 ft | 1 kts | 266° |
| 2026-05-06 18:37 | 51.50434 | 0.04877 | 26 ft | 1 kts | 300° |
| 2026-05-06 18:37 | 51.50437 | 0.04876 | 26 ft | 0 kts | 317° |